Time;durP1;ratioP1;P1;durP2;ratioP2;P2;SDS_P1;SDS_P2;PMS_P1;PMS_P2;Temp;Humidity;BMP_temperature;BMP_pressure;BME280_temperature;BME280_humidity;BME280_pressure;Samples;Min_cycle;Max_cycle;Signal;HPM_P1;HPM_P2
2021/12/28 00:01:58;;;;;;;48.45;10.77;;;;;;;5.65;100.00;99457.03;5099829;28;20036;-89
2021/12/28 00:04:24;;;;;;;40.80;11.48;;;;;;;5.60;100.00;99446.84;5111879;28;20024;-90
2021/12/28 00:06:49;;;;;;;46.47;11.98;;;;;;;5.57;100.00;99443.47;5104167;28;20035;-88
2021/12/28 00:09:14;;;;;;;48.22;10.93;;;;;;;5.59;100.00;99446.84;5111305;28;20536;-89
2021/12/28 00:11:39;;;;;;;44.38;11.35;;;;;;;5.54;100.00;99451.31;5093893;28;20035;-89
2021/12/28 00:14:06;;;;;;;42.88;11.60;;;;;;;5.50;100.00;99442.78;5092972;28;20024;-88
2021/12/28 00:17:58;;;;;;;40.35;12.10;;;;;;;5.52;100.00;99453.06;5106183;28;20020;-90
2021/12/28 00:19:17;;;;;;;46.45;11.18;;;;;;;5.53;100.00;99452.22;5098213;28;20063;-90
2021/12/28 00:21:42;;;;;;;54.05;12.45;;;;;;;5.54;100.00;99446.97;5092548;28;20108;-88
2021/12/28 00:24:07;;;;;;;47.85;11.30;;;;;;;5.46;100.00;99432.53;5099634;28;20032;-89
2021/12/28 00:26:33;;;;;;;41.05;10.38;;;;;;;5.45;100.00;99430.84;5106331;28;20027;-88
2021/12/28 00:28:58;;;;;;;51.33;12.15;;;;;;;5.40;100.00;99429.25;5107023;28;20067;-90
2021/12/28 00:31:24;;;;;;;60.08;11.85;;;;;;;5.38;100.00;99428.41;5102342;28;20051;-89
2021/12/28 00:33:51;;;;;;;55.47;11.75;;;;;;;5.34;100.00;99421.63;5111957;28;20111;-89
2021/12/28 00:36:17;;;;;;;50.22;11.85;;;;;;;5.35;100.00;99428.50;5092574;28;20038;-89
2021/12/28 00:38:42;;;;;;;43.72;11.90;;;;;;;5.35;100.00;99425.91;5089643;28;20031;-89
2021/12/28 00:41:13;;;;;;;57.97;11.25;;;;;;;5.31;100.00;99424.28;5091304;28;20051;-89
2021/12/28 00:43:40;;;;;;;48.78;11.60;;;;;;;5.34;100.00;99419.06;5091259;28;20024;-88
2021/12/28 00:46:07;;;;;;;60.85;11.90;;;;;;;5.39;100.00;99427.56;5090779;28;20028;-89
2021/12/28 00:48:32;;;;;;;53.00;12.18;;;;;;;5.49;100.00;99427.28;5110923;28;20034;-90
2021/12/28 00:50:58;;;;;;;56.70;12.77;;;;;;;5.55;100.00;99420.22;5112113;28;20024;-89
2021/12/28 00:53:24;;;;;;;57.80;11.77;;;;;;;5.63;100.00;99413.16;5114009;28;20391;-89
2021/12/28 00:55:49;;;;;;;58.13;12.80;;;;;;;5.72;100.00;99403.44;5114617;28;20467;-89
2021/12/28 00:58:15;;;;;;;55.88;12.60;;;;;;;5.68;100.00;99404.41;5114866;27;20510;-88
2021/12/28 01:00:41;;;;;;;54.30;11.68;;;;;;;5.68;100.00;99407.84;5115026;28;20435;-89
2021/12/28 01:03:09;;;;;;;62.13;12.63;;;;;;;5.62;100.00;99408.00;5115332;28;20475;-89
2021/12/28 01:05:35;;;;;;;44.63;11.40;;;;;;;5.55;100.00;99396.13;5114070;28;20026;-89
2021/12/28 01:08:00;;;;;;;58.67;11.55;;;;;;;5.55;100.00;99403.88;5112462;28;20028;-88
2021/12/28 01:10:29;;;;;;;57.03;11.43;;;;;;;5.50;100.00;99400.59;5114724;28;20387;-90
2021/12/28 01:12:55;;;;;;;40.10;10.10;;;;;;;5.43;100.00;99402.47;5114521;28;20031;-90
2021/12/28 01:15:22;;;;;;;66.90;10.93;;;;;;;5.39;100.00;99396.53;5115175;27;20020;-90
2021/12/28 01:17:48;;;;;;;65.65;10.10;;;;;;;5.35;100.00;99394.91;5114639;28;20015;-90
2021/12/28 01:20:14;;;;;;;48.58;9.77;;;;;;;5.24;100.00;99380.56;5113997;28;20062;-90
2021/12/28 01:22:41;;;;;;;46.83;9.65;;;;;;;5.25;100.00;99388.25;5112202;28;20410;-89
2021/12/28 01:25:08;;;;;;;43.80;8.70;;;;;;;5.22;100.00;99385.75;5115193;28;20076;-89
2021/12/28 01:27:34;;;;;;;59.80;9.65;;;;;;;5.22;100.00;99388.34;5114072;28;20051;-89
2021/12/28 01:30:00;;;;;;;46.60;9.13;;;;;;;5.18;100.00;99391.88;5101618;28;20518;-90
2021/12/28 01:32:25;;;;;;;50.25;10.02;;;;;;;5.12;100.00;99384.28;5103779;28;20027;-90
2021/12/28 01:34:51;;;;;;;49.55;9.30;;;;;;;5.11;100.00;99387.75;5111842;28;20016;-88
2021/12/28 01:37:16;;;;;;;49.63;8.88;;;;;;;5.11;100.00;99385.19;5099360;28;20069;-88
2021/12/28 01:39:42;;;;;;;49.45;9.35;;;;;;;5.06;100.00;99387.00;5094582;28;20069;-88
2021/12/28 01:42:08;;;;;;;56.00;9.60;;;;;;;5.03;100.00;99382.75;5110742;28;20024;-86
2021/12/28 01:44:35;;;;;;;57.60;8.98;;;;;;;5.11;100.00;99390.34;5110926;28;20023;-87
2021/12/28 01:47:01;;;;;;;51.17;9.55;;;;;;;5.06;100.00;99384.44;5094715;27;20070;-87
2021/12/28 01:49:26;;;;;;;57.00;9.82;;;;;;;5.08;100.00;99374.94;5092306;28;20024;-88
2021/12/28 01:51:52;;;;;;;48.70;9.55;;;;;;;5.12;100.00;99384.28;5106517;28;20177;-88
2021/12/28 01:54:18;;;;;;;36.97;8.48;;;;;;;5.16;100.00;99388.47;5100771;28;20027;-88
2021/12/28 01:56:45;;;;;;;40.95;9.15;;;;;;;5.20;100.00;99386.66;5123815;27;20380;-88
2021/12/28 01:59:14;;;;;;;54.22;9.40;;;;;;;5.23;100.00;99386.59;5113964;28;20016;-87
2021/12/28 02:01:40;;;;;;;58.60;9.40;;;;;;;5.24;100.00;99378.81;5113072;28;20039;-87
2021/12/28 02:04:16;;;;;;;48.85;9.25;;;;;;;5.30;100.00;99375.25;5113281;28;20027;-88
2021/12/28 02:06:42;;;;;;;59.90;9.50;;;;;;;5.37;100.00;99379.38;5113783;28;20023;-87
2021/12/28 02:09:07;;;;;;;54.35;9.73;;;;;;;5.45;100.00;99379.16;5111898;28;20027;-87
2021/12/28 02:11:33;;;;;;;62.95;11.35;;;;;;;5.45;100.00;99369.66;5112775;28;20085;-87
2021/12/28 02:13:59;;;;;;;47.88;9.50;;;;;;;5.50;100.00;99370.41;5112517;28;20035;-87
2021/12/28 02:16:25;;;;;;;58.08;10.02;;;;;;;5.56;100.00;99375.41;5112341;28;20030;-88
2021/12/28 02:18:50;;;;;;;52.03;9.93;;;;;;;5.60;100.00;99378.78;5113912;28;20027;-86
2021/12/28 02:21:15;;;;;;;58.20;9.48;;;;;;;5.63;100.00;99373.53;5113798;28;20045;-88
2021/12/28 02:23:41;;;;;;;65.70;9.88;;;;;;;5.64;100.00;99368.28;5110946;28;20024;-89
2021/12/28 02:26:07;;;;;;;65.00;11.50;;;;;;;5.68;100.00;99379.41;5112747;28;20042;-88
2021/12/28 02:28:33;;;;;;;55.67;9.80;;;;;;;5.69;100.00;99370.78;5112944;28;20020;-87
2021/12/28 02:30:59;;;;;;;65.70;10.90;;;;;;;5.73;100.00;99366.38;5112508;28;20383;-87
2021/12/28 02:33:28;;;;;;;69.40;10.65;;;;;;;5.71;100.00;99360.38;5113432;28;20047;-89
2021/12/28 02:35:57;;;;;;;56.65;10.18;;;;;;;5.71;100.00;99356.03;5113631;28;20015;-88
2021/12/28 02:38:23;;;;;;;49.83;10.05;;;;;;;5.69;100.00;99359.56;5104319;28;20020;-88
2021/12/28 02:40:48;;;;;;;56.35;9.25;;;;;;;5.65;100.00;99353.63;5105478;28;20039;-88
2021/12/28 02:43:16;;;;;;;62.83;9.30;;;;;;;5.71;100.00;99368.97;5113326;28;20944;-88
2021/12/28 02:45:54;;;;;;;49.13;9.50;;;;;;;5.73;100.00;99362.03;5111989;28;20070;-87
2021/12/28 02:48:21;;;;;;;61.33;10.20;;;;;;;5.75;100.00;99355.06;5112692;28;20035;-87
2021/12/28 02:50:49;;;;;;;63.60;11.00;;;;;;;5.81;100.00;99357.47;5102966;28;20032;-86
2021/12/28 02:53:17;;;;;;;47.22;9.15;;;;;;;5.82;100.00;99351.44;5097419;28;20031;-87
2021/12/28 02:55:44;;;;;;;52.67;9.45;;;;;;;5.81;100.00;99344.56;5096147;28;20415;-86
2021/12/28 02:58:21;;;;;;;62.35;9.32;;;;;;;5.79;100.00;99342.94;5092916;28;20432;-87
2021/12/28 03:01:09;;;;;;;56.80;8.48;;;;;;;5.77;100.00;99335.19;5104119;28;20104;-89
2021/12/28 03:03:35;;;;;;;65.70;9.90;;;;;;;5.75;100.00;99331.78;5092044;28;20103;-87
2021/12/28 03:06:03;;;;;;;52.28;8.73;;;;;;;5.78;100.00;99334.28;5093638;28;20031;-88
2021/12/28 03:08:30;;;;;;;55.85;8.98;;;;;;;5.76;100.00;99330.91;5103002;28;20070;-87
2021/12/28 03:10:57;;;;;;;55.88;7.95;;;;;;;5.78;100.00;99326.53;5108242;28;20081;-88
2021/12/28 03:13:29;;;;;;;52.95;8.38;;;;;;;5.77;100.00;99324.84;5095062;28;20060;-87
2021/12/28 03:15:55;;;;;;;50.67;8.30;;;;;;;5.75;100.00;99336.13;5095909;28;20024;-88
2021/12/28 03:18:20;;;;;;;53.33;9.35;;;;;;;5.69;100.00;99323.34;5112575;28;20270;-87
2021/12/28 03:20:46;;;;;;;51.25;8.20;;;;;;;5.66;100.00;99326.03;5098781;28;20096;-87
2021/12/28 03:23:17;;;;;;;59.35;8.73;;;;;;;5.73;100.00;99331.00;5103374;28;20024;-87
2021/12/28 03:25:43;;;;;;;49.42;7.70;;;;;;;5.74;100.00;99330.09;5111420;28;20024;-87
2021/12/28 03:28:15;;;;;;;48.92;8.15;;;;;;;5.79;100.00;99328.25;5112899;28;20050;-88
2021/12/28 03:30:40;;;;;;;48.15;7.90;;;;;;;5.79;100.00;99317.91;5110785;28;20150;-88
2021/12/28 03:33:06;;;;;;;47.60;7.20;;;;;;;5.84;100.00;99318.59;5111685;28;20510;-87
2021/12/28 03:35:31;;;;;;;54.60;8.02;;;;;;;5.92;100.00;99322.72;5112255;28;20040;-88
2021/12/28 03:37:56;;;;;;;43.65;8.15;;;;;;;5.93;100.00;99309.78;5111051;28;20031;-88
2021/12/28 03:40:21;;;;;;;48.88;7.43;;;;;;;5.98;100.00;99305.31;5109034;28;20028;-88
2021/12/28 03:42:47;;;;;;;53.47;7.43;;;;;;;6.08;100.00;99309.34;5113057;28;20020;-89
2021/12/28 03:45:13;;;;;;;43.53;7.35;;;;;;;6.13;100.00;99305.75;5112861;28;20103;-87
2021/12/28 03:47:38;;;;;;;54.08;8.02;;;;;;;6.13;100.00;99300.59;5111133;28;20065;-88
2021/12/28 03:50:06;;;;;;;49.22;7.50;;;;;;;6.12;100.00;99302.34;5112481;28;20577;-88
2021/12/28 03:52:32;;;;;;;46.80;7.50;;;;;;;6.04;100.00;99292.19;5096260;28;20486;-89
2021/12/28 03:54:57;;;;;;;44.05;7.30;;;;;;;6.02;100.00;99287.97;5092732;28;20036;-89
2021/12/28 03:57:23;;;;;;;43.28;7.72;;;;;;;5.99;100.00;99288.91;5111994;28;20024;-88
2021/12/28 03:59:48;;;;;;;47.85;7.38;;;;;;;6.12;100.00;99284.22;5112070;28;20039;-88
2021/12/28 04:02:13;;;;;;;50.60;7.30;;;;;;;6.14;100.00;99274.66;5108662;28;20382;-88
2021/12/28 04:04:39;;;;;;;47.10;7.30;;;;;;;6.28;100.00;99280.28;5111381;28;20042;-88
2021/12/28 04:07:07;;;;;;;49.88;7.40;;;;;;;6.33;100.00;99283.56;5098301;28;20054;-88
2021/12/28 04:09:58;;;;;;;51.25;7.28;;;;;;;6.38;100.00;99267.06;5100551;28;20387;-87
2021/12/28 04:12:23;;;;;;;55.85;7.68;;;;;;;6.42;100.00;99266.06;5109438;28;20098;-88
2021/12/28 04:14:49;;;;;;;43.88;5.78;;;;;;;6.52;100.00;99272.63;5109545;28;20028;-89
2021/12/28 04:17:15;;;;;;;61.53;8.30;;;;;;;6.58;100.00;99272.44;5110881;28;20119;-88
2021/12/28 04:19:40;;;;;;;51.88;6.88;;;;;;;6.53;100.00;99267.38;5110126;28;20110;-88
2021/12/28 04:22:08;;;;;;;44.17;6.55;;;;;;;6.59;100.00;99266.34;5107819;28;20080;-90
2021/12/28 04:24:34;;;;;;;46.58;6.93;;;;;;;6.62;100.00;99258.47;5092334;28;20020;-88
2021/12/28 04:26:59;;;;;;;49.60;7.78;;;;;;;6.68;100.00;99271.25;5112074;28;20035;-89
2021/12/28 04:29:24;;;;;;;39.67;6.70;;;;;;;6.69;100.00;99270.34;5109411;28;20056;-89
2021/12/28 04:31:50;;;;;;;48.42;7.47;;;;;;;6.74;100.00;99284.00;5096190;28;20024;-89
2021/12/28 04:34:18;;;;;;;42.05;6.63;;;;;;;6.76;100.00;99276.16;5099479;28;20035;-89
2021/12/28 04:36:43;;;;;;;60.13;6.80;;;;;;;6.78;100.00;99275.22;5106026;28;20023;-88
2021/12/28 04:39:09;;;;;;;46.47;5.68;;;;;;;6.81;100.00;99274.28;5114713;28;20440;-87
2021/12/28 04:41:34;;;;;;;42.00;5.22;;;;;;;6.83;100.00;99275.06;5100485;28;20421;-86
2021/12/28 04:44:01;;;;;;;42.95;6.10;;;;;;;6.88;100.00;99280.09;5094397;28;20422;-88
2021/12/28 04:46:30;;;;;;;54.92;6.45;;;;;;;6.91;100.00;99290.38;5105915;28;20031;-87
2021/12/28 04:48:56;;;;;;;37.97;5.28;;;;;;;6.91;100.00;99287.78;5114330;28;20027;-87
2021/12/28 04:51:23;;;;;;;36.55;5.72;;;;;;;6.89;100.00;99284.38;5110361;28;20032;-88
2021/12/28 04:53:49;;;;;;;36.00;5.13;;;;;;;6.93;100.00;99285.97;5114226;28;20019;-88
2021/12/28 04:56:15;;;;;;;37.55;5.63;;;;;;;6.93;100.00;99288.56;5105022;28;20039;-88
2021/12/28 04:58:40;;;;;;;38.70;5.32;;;;;;;6.92;100.00;99286.88;5109084;28;20085;-87
2021/12/28 05:01:06;;;;;;;42.33;5.80;;;;;;;6.93;100.00;99288.56;5096180;28;20141;-86
2021/12/28 05:03:31;;;;;;;42.60;5.15;;;;;;;6.94;100.00;99287.66;5112553;28;20353;-88
2021/12/28 05:05:56;;;;;;;38.05;5.70;;;;;;;6.94;100.00;99290.25;5104097;28;20023;-89
2021/12/28 05:08:22;;;;;;;41.03;5.30;;;;;;;6.93;100.00;99273.00;5115139;28;20027;-87
2021/12/28 05:10:50;;;;;;;31.13;5.07;;;;;;;6.90;100.00;99279.16;5107127;28;20038;-88
2021/12/28 05:13:15;;;;;;;40.75;5.40;;;;;;;6.86;100.00;99272.38;5098807;28;20032;-88
2021/12/28 05:15:43;;;;;;;33.00;5.20;;;;;;;6.85;100.00;99275.03;5113763;27;20457;-87
2021/12/28 05:18:09;;;;;;;45.35;5.75;;;;;;;6.85;100.00;99269.84;5114444;28;20024;-87
2021/12/28 05:20:35;;;;;;;43.80;5.15;;;;;;;6.87;100.00;99263.72;5114642;28;20012;-87
2021/12/28 05:23:00;;;;;;;28.85;5.03;;;;;;;6.87;100.00;99263.72;5114899;28;20502;-89
2021/12/28 05:25:26;;;;;;;30.38;5.03;;;;;;;6.85;100.00;99256.88;5114060;28;20194;-88
2021/12/28 05:27:51;;;;;;;31.35;4.65;;;;;;;6.84;100.00;99247.44;5113512;28;20066;-87
2021/12/28 05:30:17;;;;;;;27.95;4.32;;;;;;;6.83;100.00;99251.75;5114454;28;20483;-88
2021/12/28 05:32:42;;;;;;;33.72;4.57;;;;;;;6.91;100.00;99251.50;5114607;28;20476;-87
2021/12/28 05:35:08;;;;;;;25.17;4.32;;;;;;;6.94;100.00;99254.84;5115469;28;20038;-89
2021/12/28 05:37:34;;;;;;;31.23;4.35;;;;;;;6.96;100.00;99254.75;5109245;28;20028;-88
2021/12/28 05:39:59;;;;;;;33.20;4.63;;;;;;;6.97;100.00;99253.88;5093908;28;20115;-88
2021/12/28 05:42:25;;;;;;;26.38;4.97;;;;;;;6.97;100.00;99251.28;5094179;28;20034;-89
2021/12/28 05:44:50;;;;;;;19.95;4.05;;;;;;;7.01;100.00;99253.72;5094219;28;20032;-87
2021/12/28 05:47:16;;;;;;;30.70;4.78;;;;;;;6.98;100.00;99247.81;5103029;28;20107;-88
2021/12/28 05:49:42;;;;;;;26.60;4.43;;;;;;;7.00;100.00;99249.44;5114608;28;20367;-89
2021/12/28 05:52:07;;;;;;;30.40;4.28;;;;;;;6.98;100.00;99240.88;5114224;28;20031;-88
2021/12/28 05:54:33;;;;;;;19.73;4.57;;;;;;;6.98;100.00;99237.44;5113625;28;20027;-88
2021/12/28 05:56:58;;;;;;;24.40;3.72;;;;;;;7.01;100.00;99240.75;5112402;27;20031;-89
2021/12/28 05:59:24;;;;;;;33.17;4.43;;;;;;;7.04;100.00;99234.63;5100635;28;20459;-89
2021/12/28 06:01:49;;;;;;;31.98;4.03;;;;;;;7.06;100.00;99229.38;5114114;28;20019;-87
2021/12/28 06:04:14;;;;;;;28.98;4.07;;;;;;;7.09;100.00;99232.72;5114126;28;20032;-88
2021/12/28 06:06:40;;;;;;;29.98;4.10;;;;;;;7.11;100.00;99233.53;5106355;28;20031;-87
2021/12/28 06:09:05;;;;;;;25.20;3.42;;;;;;;7.12;100.00;99230.03;5111722;28;20027;-88
2021/12/28 06:11:30;;;;;;;25.35;3.92;;;;;;;7.14;100.00;99225.63;5097702;28;20035;-88
2021/12/28 06:13:56;;;;;;;20.17;3.92;;;;;;;7.14;100.00;99224.78;5109832;28;20031;-87
2021/12/28 06:16:21;;;;;;;24.85;4.07;;;;;;;7.13;100.00;99218.78;5108442;28;20026;-88
2021/12/28 06:18:46;;;;;;;28.98;4.18;;;;;;;7.13;100.00;99220.50;5103175;28;20027;-88
2021/12/28 06:21:12;;;;;;;28.70;3.60;;;;;;;7.06;100.00;99216.44;5109118;28;20467;-88
2021/12/28 06:23:37;;;;;;;19.75;3.80;;;;;;;7.11;100.00;99224.91;5095940;28;20112;-89
2021/12/28 06:26:03;;;;;;;23.52;4.28;;;;;;;7.11;100.00;99212.78;5096968;28;20031;-88
2021/12/28 06:28:28;;;;;;;22.23;3.63;;;;;;;7.11;100.00;99211.94;5095733;28;20039;-88
2021/12/28 06:30:54;;;;;;;18.38;4.07;;;;;;;7.08;100.00;99199.94;5093589;28;20040;-90
2021/12/28 06:33:23;;;;;;;23.73;3.50;;;;;;;7.11;100.00;99199.00;5093439;28;20032;-88
2021/12/28 06:35:49;;;;;;;19.65;3.65;;;;;;;7.06;100.00;99201.72;5092774;28;20032;-88
2021/12/28 06:38:16;;;;;;;29.77;3.97;;;;;;;7.01;100.00;99193.28;5104121;28;20027;-89
2021/12/28 06:40:41;;;;;;;18.35;3.58;;;;;;;6.93;100.00;99193.56;5110128;28;20032;-88
2021/12/28 06:43:08;;;;;;;23.35;3.88;;;;;;;6.93;100.00;99190.09;5099202;28;20096;-90
2021/12/28 06:45:34;;;;;;;18.75;3.58;;;;;;;6.89;100.00;99191.13;5113260;28;20028;-88
2021/12/28 06:48:02;;;;;;;26.58;4.13;;;;;;;6.99;100.00;99200.25;5111968;28;20471;-88
2021/12/28 06:50:28;;;;;;;15.25;3.03;;;;;;;7.03;100.00;99204.44;5113019;28;20023;-89
2021/12/28 06:52:53;;;;;;;12.68;3.38;;;;;;;7.01;100.00;99188.09;5115266;28;20035;-88
2021/12/28 06:55:18;;;;;;;20.25;3.72;;;;;;;7.05;100.00;99194.84;5114015;28;20360;-88
2021/12/28 06:57:44;;;;;;;21.45;3.10;;;;;;;6.97;100.00;99183.94;5106817;28;20105;-88
2021/12/28 07:00:12;;;;;;;14.88;3.00;;;;;;;7.00;100.00;99196.78;5108719;28;20030;-88
2021/12/28 07:02:38;;;;;;;18.10;3.13;;;;;;;7.00;100.00;99191.59;5111622;28;20498;-88
2021/12/28 07:05:05;;;;;;;17.83;3.50;;;;;;;6.98;100.00;99194.22;5110156;28;20096;-88
2021/12/28 07:07:30;;;;;;;17.85;2.65;;;;;;;6.96;100.00;99190.00;5091672;28;20032;-88
2021/12/28 07:09:55;;;;;;;19.55;3.67;;;;;;;7.07;100.00;99195.66;5093497;28;20035;-89
2021/12/28 07:12:21;;;;;;;17.33;2.97;;;;;;;7.07;100.00;99193.06;5093756;28;20024;-89
2021/12/28 07:14:47;;;;;;;17.52;3.10;;;;;;;7.13;100.00;99198.03;5092209;28;20043;-88
2021/12/28 07:17:12;;;;;;;16.95;3.42;;;;;;;7.13;100.00;99192.84;5095351;28;20060;-89
2021/12/28 07:19:37;;;;;;;25.98;3.25;;;;;;;7.18;100.00;99201.28;5098848;28;20019;-88
2021/12/28 07:22:03;;;;;;;17.65;2.75;;;;;;;7.20;100.00;99194.31;5105165;28;20107;-89
2021/12/28 07:24:28;;;;;;;11.63;2.58;;;;;;;7.24;100.00;99195.91;5111226;28;20368;-87
2021/12/28 07:26:54;;;;;;;13.02;2.83;;;;;;;7.24;100.00;99195.06;5107196;28;20024;-88
2021/12/28 07:29:19;;;;;;;15.48;3.33;;;;;;;7.26;100.00;99204.47;5102452;28;20510;-88
2021/12/28 07:31:45;;;;;;;10.65;2.40;;;;;;;7.29;100.00;99198.31;5111267;28;20089;-90
2021/12/28 07:34:10;;;;;;;11.57;2.83;;;;;;;7.27;100.00;99176.81;5098694;28;20063;-88
2021/12/28 07:36:35;;;;;;;11.55;3.28;;;;;;;7.31;100.00;99191.34;5110279;28;20091;-88
2021/12/28 07:39:02;;;;;;;19.33;3.03;;;;;;;7.32;100.00;99184.41;5093861;28;20020;-86
2021/12/28 07:41:27;;;;;;;16.02;3.03;;;;;;;7.35;100.00;99194.66;5100902;28;20035;-91
2021/12/28 07:43:53;;;;;;;22.83;3.10;;;;;;;7.35;100.00;99198.09;5097129;28;20020;-91
2021/12/28 07:46:18;;;;;;;13.90;2.80;;;;;;;7.30;100.00;99183.63;5110827;28;20038;-93
2021/12/28 07:48:43;;;;;;;19.77;3.35;;;;;;;7.39;100.00;99197.09;5112983;28;20028;-90
2021/12/28 07:51:09;;;;;;;17.58;3.72;;;;;;;7.40;100.00;99179.78;5097980;28;20059;-89
2021/12/28 07:53:35;;;;;;;13.23;3.08;;;;;;;7.43;100.00;99195.25;5104628;28;20034;-91
2021/12/28 07:56:02;;;;;;;13.77;3.63;;;;;;;7.45;100.00;99189.06;5112722;28;20451;-89
2021/12/28 07:58:28;;;;;;;17.65;3.95;;;;;;;7.46;100.00;99179.56;5112183;28;20467;-90
2021/12/28 08:00:54;;;;;;;16.55;3.80;;;;;;;7.43;100.00;99170.16;5112260;28;20020;-90
2021/12/28 08:03:19;;;;;;;17.52;4.25;;;;;;;7.46;100.00;99161.41;5116717;28;20068;-90
2021/12/28 08:05:45;;;;;;;10.63;3.78;;;;;;;7.49;100.00;99171.69;5102406;28;20542;-89
2021/12/28 08:08:16;;;;;;;12.20;4.10;;;;;;;7.49;100.00;99172.53;5104429;27;20523;-89
2021/12/28 08:10:42;;;;;;;17.45;4.35;;;;;;;7.54;100.00;99174.94;5100693;28;20032;-90
2021/12/28 08:13:08;;;;;;;19.85;5.25;;;;;;;7.57;100.00;99181.75;5106798;28;20028;-92
2021/12/28 08:15:33;;;;;;;15.35;4.55;;;;;;;7.58;100.00;99178.25;5094642;28;20381;-91
2021/12/28 08:17:59;;;;;;;18.30;5.50;;;;;;;7.57;100.00;99174.81;5095878;28;20464;-89
2021/12/28 08:20:25;;;;;;;13.25;5.22;;;;;;;7.60;100.00;99176.47;5109520;28;20024;-88
2021/12/28 08:22:50;;;;;;;15.23;5.15;;;;;;;7.62;100.00;99182.41;5115243;28;20394;-91
2021/12/28 08:25:19;;;;;;;20.42;5.45;;;;;;;7.59;100.00;99164.41;5116265;28;20024;-92
2021/12/28 08:27:45;;;;;;;14.23;6.22;;;;;;;7.64;100.00;99172.84;5098055;28;20394;-90
2021/12/28 08:30:13;;;;;;;17.23;5.72;;;;;;;7.66;100.00;99173.63;5098967;28;20144;-91
2021/12/28 08:32:40;;;;;;;14.70;5.32;;;;;;;7.68;100.00;99169.22;5118634;28;20035;-88
2021/12/28 08:35:06;;;;;;;14.32;5.57;;;;;;;7.70;100.00;99163.06;5104472;28;20032;-90
2021/12/28 08:37:32;;;;;;;18.30;6.78;;;;;;;7.72;100.00;99163.03;5103277;28;20024;-90
2021/12/28 08:39:57;;;;;;;19.15;6.53;;;;;;;7.72;100.00;99163.88;5102877;28;20024;-88
2021/12/28 08:42:23;;;;;;;14.35;6.55;;;;;;;7.73;100.00;99162.13;5096904;28;20570;-87
2021/12/28 08:44:49;;;;;;;17.65;6.95;;;;;;;7.77;100.00;99158.50;5097078;28;20027;-89
2021/12/28 08:47:17;;;;;;;18.27;7.10;;;;;;;7.78;100.00;99165.34;5116324;28;20024;-89
2021/12/28 08:49:42;;;;;;;20.33;8.27;;;;;;;7.78;100.00;99159.31;5114466;28;20032;-89
2021/12/28 08:52:07;;;;;;;24.48;8.30;;;;;;;7.79;100.00;99158.44;5117116;28;20080;-87
2021/12/28 08:54:33;;;;;;;18.00;8.30;;;;;;;7.84;100.00;99164.28;5115717;28;20036;-88
2021/12/28 08:56:59;;;;;;;15.77;7.70;;;;;;;7.82;100.00;99156.56;5116903;28;20077;-89
2021/12/28 08:59:25;;;;;;;18.92;8.80;;;;;;;7.86;100.00;99158.13;5103745;28;20024;-90
2021/12/28 09:01:51;;;;;;;21.23;9.50;;;;;;;7.90;100.00;99156.25;5100410;28;20468;-88
2021/12/28 09:04:17;;;;;;;22.20;9.20;;;;;;;7.90;100.00;99149.31;5102487;28;20088;-89
2021/12/28 09:06:44;;;;;;;22.25;9.65;;;;;;;7.94;100.00;99158.66;5095588;28;20020;-88
2021/12/28 09:09:10;;;;;;;23.85;10.57;;;;;;;7.97;100.00;99155.13;5097791;28;20040;-90
2021/12/28 09:11:35;;;;;;;20.33;9.77;;;;;;;7.93;100.00;99143.16;5096322;28;20032;-87
2021/12/28 09:14:00;;;;;;;22.65;10.60;;;;;;;8.01;100.00;99148.03;5099175;28;20076;-88
2021/12/28 09:16:26;;;;;;;27.73;11.98;;;;;;;8.07;100.00;99150.41;5105744;28;20016;-87
2021/12/28 09:18:51;;;;;;;28.27;12.25;;;;;;;8.11;100.00;99146.75;5107243;28;20063;-88
2021/12/28 09:21:16;;;;;;;28.52;12.88;;;;;;;8.10;100.00;99132.09;5111907;28;20023;-89
2021/12/28 09:23:42;;;;;;;26.10;13.02;;;;;;;8.12;100.00;99128.56;5109123;28;20434;-88
2021/12/28 09:26:07;;;;;;;27.73;12.63;;;;;;;8.15;100.00;99130.19;5099597;28;20017;-89
2021/12/28 09:28:33;;;;;;;26.02;12.73;;;;;;;8.20;100.00;99133.41;5114688;28;20020;-88
2021/12/28 09:30:58;;;;;;;27.30;13.48;;;;;;;8.18;100.00;99130.91;5098697;28;20040;-87
2021/12/28 09:33:26;;;;;;;25.25;12.60;;;;;;;8.20;100.00;99130.81;5105951;28;20015;-92
2021/12/28 09:35:53;;;;;;;26.15;12.82;;;;;;;8.26;100.00;99127.97;5103663;28;20044;-88
2021/12/28 09:38:20;;;;;;;24.92;13.35;;;;;;;8.26;100.00;99120.19;5119623;28;20027;-90
2021/12/28 09:40:47;;;;;;;25.48;13.50;;;;;;;8.30;100.00;99124.34;5123949;27;20031;-88
2021/12/28 09:43:14;;;;;;;23.33;12.82;;;;;;;8.32;100.00;99113.91;5103772;28;20099;-91
2021/12/28 09:45:39;;;;;;;24.55;13.38;;;;;;;8.29;100.00;99111.44;5104991;28;20799;-93
2021/12/28 09:48:06;;;;;;;23.33;12.60;;;;;;;8.34;100.00;99112.09;5118238;28;20031;-91
2021/12/28 09:50:34;;;;;;;25.95;13.13;;;;;;;8.34;100.00;99125.94;5128744;28;20034;-89
2021/12/28 09:53:01;;;;;;;23.75;12.98;;;;;;;8.32;100.00;99106.13;5122631;28;20390;-87
2021/12/28 09:55:27;;;;;;;25.17;13.30;;;;;;;8.34;100.00;99105.16;5120137;28;20024;-92
2021/12/28 09:57:53;;;;;;;21.75;12.88;;;;;;;8.43;100.00;99109.13;5117062;28;20031;-89
2021/12/28 10:00:20;;;;;;;23.00;12.32;;;;;;;8.45;100.00;99107.31;5104300;28;20020;-87
2021/12/28 10:02:45;;;;;;;21.15;12.63;;;;;;;8.46;100.00;99102.97;5106871;28;20374;-87
2021/12/28 10:05:14;;;;;;;18.85;11.90;;;;;;;8.49;100.00;99101.09;5109063;28;20032;-89
2021/12/28 10:07:48;;;;;;;20.10;11.80;;;;;;;8.52;100.00;99100.94;5095104;28;20031;-88
2021/12/28 10:10:14;;;;;;;22.02;12.10;;;;;;;8.50;100.00;99094.13;5111913;28;20386;-87
2021/12/28 10:12:44;;;;;;;25.77;12.25;;;;;;;8.50;100.00;99087.22;5113799;28;20032;-88
2021/12/28 10:15:15;;;;;;;19.60;11.20;;;;;;;8.50;100.00;99081.16;5096585;28;20031;-89
2021/12/28 10:17:45;;;;;;;19.13;10.77;;;;;;;8.55;100.00;99080.03;5098372;28;20475;-87
2021/12/28 10:20:14;;;;;;;17.67;11.10;;;;;;;8.55;100.00;99074.00;5096560;28;20360;-88
2021/12/28 10:22:49;;;;;;;16.92;10.95;;;;;;;8.61;100.00;99069.41;5105560;28;20495;-87
2021/12/28 10:25:20;;;;;;;19.10;9.88;;;;;;;8.63;100.00;99067.59;5097076;28;20130;-88
2021/12/28 10:27:49;;;;;;;17.33;9.52;;;;;;;8.66;100.00;99054.47;5115431;28;20499;-88
2021/12/28 10:30:18;;;;;;;14.98;9.27;;;;;;;8.74;100.00;99055.88;5113503;28;20848;-86
2021/12/28 10:32:46;;;;;;;15.40;8.93;;;;;;;8.77;100.00;99048.78;5112899;28;20027;-88
2021/12/28 10:35:15;;;;;;;12.07;8.07;;;;;;;8.81;100.00;99044.28;5110846;28;20059;-87
2021/12/28 10:37:45;;;;;;;12.43;7.60;;;;;;;8.80;100.00;99043.44;5113622;28;20104;-90
2021/12/28 10:40:14;;;;;;;10.30;6.47;;;;;;;8.81;100.00;99033.91;5118263;28;20051;-89
2021/12/28 10:42:49;;;;;;;12.10;5.97;;;;;;;8.78;100.00;99029.66;5105000;27;20467;-89
2021/12/28 10:45:25;;;;;;;7.75;5.15;;;;;;;8.75;100.00;99034.16;5119469;28;20042;-88
2021/12/28 10:47:52;;;;;;;8.65;4.63;;;;;;;8.71;100.00;99028.25;5117631;28;20026;-89
2021/12/28 10:50:38;;;;;;;9.00;4.43;;;;;;;8.70;100.00;99031.78;5106187;28;20046;-89
2021/12/28 10:53:17;;;;;;;8.75;4.05;;;;;;;8.68;100.00;99031.00;5120602;28;20028;-89
2021/12/28 10:55:44;;;;;;;8.00;4.15;;;;;;;8.69;100.00;99022.28;5122719;28;20035;-91
2021/12/28 10:58:21;;;;;;;7.57;4.55;;;;;;;8.71;100.00;99035.22;5123213;28;20028;-89
2021/12/28 11:00:46;;;;;;;10.35;5.30;;;;;;;8.68;100.00;99013.66;5124929;28;20051;-89
2021/12/28 11:03:16;;;;;;;8.63;5.05;;;;;;;8.71;100.00;99019.63;5124399;28;20121;-90
2021/12/28 11:05:45;;;;;;;7.68;4.85;;;;;;;8.75;100.00;99019.41;5102121;28;20036;-88
2021/12/28 11:08:11;;;;;;;11.00;5.40;;;;;;;8.74;100.00;99012.53;5105719;28;20024;-89
2021/12/28 11:10:46;;;;;;;10.40;5.15;;;;;;;8.76;100.00;99009.88;5105758;28;20378;-90
2021/12/28 11:13:13;;;;;;;10.52;5.82;;;;;;;8.75;100.00;99014.22;5097686;28;20483;-88
2021/12/28 11:15:45;;;;;;;7.60;5.60;;;;;;;8.77;100.00;98994.22;5102790;28;20024;-88
2021/12/28 11:18:23;;;;;;;8.23;5.75;;;;;;;8.76;100.00;98996.88;5113926;28;20043;-90
2021/12/28 11:20:52;;;;;;;9.10;5.40;;;;;;;8.77;100.00;98985.59;5116562;28;20028;-89
2021/12/28 11:23:21;;;;;;;9.23;5.07;;;;;;;8.75;100.00;98995.19;5116801;28;20023;-90